Pegas B738 at Ekaterinburg on Jun 9th 2016, overran runway

Last Update: June 9, 2016 / 18:10:42 GMT/Zulu time

Bookmark this article
Incident Facts

Date of incident
Jun 9, 2016

Classification
Incident

Airline
Pegas Fly

Flight number
IK-1732

Aircraft Registration
VP-BPY

Aircraft Type
Boeing 737-800

ICAO Type Designator
B738

Airport ICAO Code
USSS

A Pegas Fly (former Ikar) Boeing 737-800, registration VP-BPY performing flight IK-1732 from Monastir (Tunisia) to Ekaterinburg (Russia) with 175 passengers and 16 crew, landed on Ekaterinburg's runway 26R (length 3,000 meters/9,850 feet) at 05:15L (00:15Z) but overran the end of the runway and came to a stop with the nose gear past the runway end lights, however still on the paved surface of the runway end safety area.

The aircraft needed to be pushed back by a tow tug before being able to taxi to the apron on own power about 30 minutes later.

The occurrence aircraft remained on the ground at Ekaterinburg's Koltsovo Airport for about 4 hours, then departed for its next flight.

West Siberia's Transport Prosecutor's Office reported they are looking into the occurrence when the Boeing 737-800 "went past the runway restrictive lights without leaving the ground".

Metars:
USSS 090130Z 26007MPS 7000 -SHRA FEW007 OVC025CB 12/12 Q1006 R26R/220340 NOSIG RMK QFE734/0979
USSS 090100Z 13001MPS 2600 -SHRA BR FEW008 BKN026CB 15/15 Q1005 R26R/220340 NOSIG RMK QFE733/0978
USSS 090030Z 14001MPS 2400 -SHRA BR FEW008 BKN033CB 15/15 Q1005 R26R/220340 NOSIG RMK QFE733/0978
USSS 090000Z 09002MPS 3400 -SHRA BR FEW007 BKN050CB 15/15 Q1005 R26R/220340 NOSIG RMK QFE733/0978
USSS 082330Z 10001MPS 3100 -SHRA BR BKN050CB 14/14 Q1005 R26R/220340 NOSIG RMK QFE733/0978
USSS 082300Z 06001MPS 4300 -SHRA BR BKN046CB 15/15 Q1005 R26R/290040 NOSIG RMK QFE733/0978
USSS 082230Z 14001MPS 4000 -SHRA BR BKN046CB 15/15 Q1006 R26R/290040 NOSIG RMK QFE734/0978
USSS 082200Z VRB01MPS 5000 -SHRA BKN046CB 15/15 Q1006 R26R/290040 NOSIG RMK QFE734/0978
USSS 082130Z 18002MPS 5000 BR BKN046CB 15/15 Q1006 R26R/290040 NOSIG RMK QFE734/0979
USSS 082100Z 17001MPS 4400 -SHRA BR BKN043CB 15/15 Q1006 R26R/290040 NOSIG RMK QFE734/0979
Incident Facts

Date of incident
Jun 9, 2016

Classification
Incident

Airline
Pegas Fly

Flight number
IK-1732

Aircraft Registration
VP-BPY

Aircraft Type
Boeing 737-800

ICAO Type Designator
B738

Airport ICAO Code
USSS

This article is published under license from Avherald.com. © of text by Avherald.com.
Article source

You can read 2 more free articles without a subscription.

Subscribe now and continue reading without any limits!

Are you a subscriber? Login
Subscribe

Read unlimited articles and receive our daily update briefing. Gain better insights into what is happening in commercial aviation safety.

Free newsletter

Want to know more and stay ahead? Get our free weekly newsletter and join 5470 existing subscribers.

By subscribing, you accept our terms and conditions and confirm that you've read our privacy policy.

Send tip

Support AeroInside by sending a small tip amount.

Related articles

Newest articles

Subscribe today

Are you researching aviation incidents? Get access to AeroInside Insights, unlimited read access and receive the daily newsletter.

Pick your plan and subscribe

Partner

Blockaviation logo

A new way to document and demonstrate airworthiness compliance and aircraft value. Find out more.

Virtual Speech logo

ELITE Simulation Solutions is a leading global provider of Flight Simulation Training Devices, IFR training software as well as flight controls and related services. Find out more.

Get updates

Never miss an article from AeroInside. Subscribe to our free weekly newsletter and join 5470 existing subscribers.

By subscribing, you accept our terms and conditions and that you've read our privacy policy.

AeroInside Blog
Popular aircraft
Airbus A320
Boeing 737-800
Boeing 737-800 MAX
Popular airlines
American Airlines
United
Delta
Air Canada
Lufthansa
British Airways